메인 페이지
METAR-TAF:

METAR-TAF

공항 :

Childress, 텍사스, 미국

위도: 34-25-39N, 경도: 100-17-00W, 고도: 595m

현재 날씨관측

예보는 36분 전, 15:53시(UTC)에 발표되었습니다.
북북서3kt
온도 2°C
습도 69%
기압 1031 hPa
시정: 16.1km
맑음

METAR: KCDS 141553Z AUTO 34003KT 10SM CLR 02/M03 A3046 RMK AO2 SLP327 T00221028

시각: 10:29 (16:29 UTC)

예보

예보는 5 시간 9분 전, 11:20시(UTC)에 발표되었습니다.
예보 대상 시간: 14일 12시부터 15일 12시까지 (UTC)
서북서6kt
시정: 10km
맑음

TAF: KCDS 141120Z 1412/1512 30006KT P6SM SKC

4,000개 이상의 공항 관측 자료 및 예보 (METAR 및 TAF 보고).

지도상에서 검색 가능한 기상관측소가 노란 점과 빨간 점으로 표시되어 있습니다.

기상관측소 명을 보려면 표시 위로 마우스를 이동하세요.

날씨 관측과 예보를 보려면 클릭하세요.

지도 변경 : 확대하려면 엑스 표시가 있는 녹색 버튼, 축소하려면 빼기 표시가 있는 녹색 버튼, 다음 페이지의 지도를 보려면 녹색 화살표를 클릭하세요.


METAR-TAF: